sensor_id;sensor_type;location;lat;lon;timestamp;temperature;humidity
5592;DHT22;2818;49.790;9.958;2022-11-10T00:01:07;11.80;1.00
5592;DHT22;2818;49.790;9.958;2022-11-10T00:03:36;11.70;1.60
5592;DHT22;2818;49.790;9.958;2022-11-10T00:06:04;11.70;4.70
5592;DHT22;2818;49.790;9.958;2022-11-10T00:08:32;11.70;7.30
5592;DHT22;2818;49.790;9.958;2022-11-10T00:11:03;11.70;12.90
5592;DHT22;2818;49.790;9.958;2022-11-10T00:13:34;11.60;14.70
5592;DHT22;2818;49.790;9.958;2022-11-10T00:16:03;11.60;18.60
5592;DHT22;2818;49.790;9.958;2022-11-10T00:18:49;11.60;18.30
5592;DHT22;2818;49.790;9.958;2022-11-10T00:21:17;11.60;27.30
5592;DHT22;2818;49.790;9.958;2022-11-10T00:23:44;11.50;30.70
5592;DHT22;2818;49.790;9.958;2022-11-10T00:26:17;11.50;35.40
5592;DHT22;2818;49.790;9.958;2022-11-10T00:28:45;11.50;37.10
5592;DHT22;2818;49.790;9.958;2022-11-10T00:31:12;11.40;36.40
5592;DHT22;2818;49.790;9.958;2022-11-10T00:33:41;11.40;40.50
5592;DHT22;2818;49.790;9.958;2022-11-10T00:36:10;11.40;35.80
5592;DHT22;2818;49.790;9.958;2022-11-10T00:38:37;11.40;31.20
5592;DHT22;2818;49.790;9.958;2022-11-10T00:41:04;11.40;30.70
5592;DHT22;2818;49.790;9.958;2022-11-10T00:43:31;11.40;30.50
5592;DHT22;2818;49.790;9.958;2022-11-10T00:45:59;11.30;31.80
5592;DHT22;2818;49.790;9.958;2022-11-10T00:48:25;11.30;40.90
5592;DHT22;2818;49.790;9.958;2022-11-10T00:50:52;11.20;50.10
5592;DHT22;2818;49.790;9.958;2022-11-10T00:53:19;11.20;56.90
5592;DHT22;2818;49.790;9.958;2022-11-10T00:55:47;11.20;54.30
5592;DHT22;2818;49.790;9.958;2022-11-10T00:58:14;11.20;58.70
5592;DHT22;2818;49.790;9.958;2022-11-10T01:00:41;11.10;57.80
5592;DHT22;2818;49.790;9.958;2022-11-10T01:03:15;11.10;78.20
5592;DHT22;2818;49.790;9.958;2022-11-10T01:05:43;11.00;94.30
5592;DHT22;2818;49.790;9.958;2022-11-10T01:08:10;10.90;99.90
5592;DHT22;2818;49.790;9.958;2022-11-10T01:10:37;10.90;99.90
5592;DHT22;2818;49.790;9.958;2022-11-10T01:13:04;10.80;99.90
5592;DHT22;2818;49.790;9.958;2022-11-10T01:15:30;10.70;99.90
5592;DHT22;2818;49.790;9.958;2022-11-10T01:17:57;10.70;99.90
5592;DHT22;2818;49.790;9.958;2022-11-10T01:20:24;10.70;99.90
5592;DHT22;2818;49.790;9.958;2022-11-10T01:22:51;10.60;99.90
5592;DHT22;2818;49.790;9.958;2022-11-10T01:25:18;10.60;99.90
5592;DHT22;2818;49.790;9.958;2022-11-10T01:27:45;10.60;99.90
5592;DHT22;2818;49.790;9.958;2022-11-10T01:30:12;10.50;99.90
5592;DHT22;2818;49.790;9.958;2022-11-10T01:32:39;10.50;99.90
5592;DHT22;2818;49.790;9.958;2022-11-10T01:35:07;10.40;99.90
5592;DHT22;2818;49.790;9.958;2022-11-10T01:37:34;10.40;99.90
5592;DHT22;2818;49.790;9.958;2022-11-10T01:40:02;10.40;99.90
5592;DHT22;2818;49.790;9.958;2022-11-10T01:42:50;10.30;99.90
5592;DHT22;2818;49.790;9.958;2022-11-10T01:47:56;10.20;99.90
5592;DHT22;2818;49.790;9.958;2022-11-10T01:50:25;10.20;99.90
5592;DHT22;2818;49.790;9.958;2022-11-10T01:52:56;10.20;99.90
5592;DHT22;2818;49.790;9.958;2022-11-10T01:55:23;10.20;99.90
5592;DHT22;2818;49.790;9.958;2022-11-10T01:57:51;10.20;99.90
5592;DHT22;2818;49.790;9.958;2022-11-10T02:00:19;10.20;99.90
5592;DHT22;2818;49.790;9.958;2022-11-10T02:02:48;10.10;99.90
5592;DHT22;2818;49.790;9.958;2022-11-10T02:05:16;10.10;99.90
5592;DHT22;2818;49.790;9.958;2022-11-10T02:07:44;10.10;99.90
5592;DHT22;2818;49.790;9.958;2022-11-10T02:10:16;10.00;99.90
5592;DHT22;2818;49.790;9.958;2022-11-10T02:12:44;10.00;99.90
5592;DHT22;2818;49.790;9.958;2022-11-10T02:15:14;10.00;99.90
5592;DHT22;2818;49.790;9.958;2022-11-10T02:17:42;10.00;99.90
5592;DHT22;2818;49.790;9.958;2022-11-10T02:20:12;9.90;99.90
5592;DHT22;2818;49.790;9.958;2022-11-10T02:22:40;9.90;99.90
5592;DHT22;2818;49.790;9.958;2022-11-10T02:25:07;9.90;99.90
5592;DHT22;2818;49.790;9.958;2022-11-10T02:27:34;9.80;99.90
5592;DHT22;2818;49.790;9.958;2022-11-10T02:30:01;9.90;99.90
5592;DHT22;2818;49.790;9.958;2022-11-10T02:32:28;9.80;99.90
5592;DHT22;2818;49.790;9.958;2022-11-10T02:34:55;9.80;99.90
5592;DHT22;2818;49.790;9.958;2022-11-10T02:37:22;9.70;99.90
5592;DHT22;2818;49.790;9.958;2022-11-10T02:39:49;9.70;99.90
5592;DHT22;2818;49.790;9.958;2022-11-10T02:42:15;9.70;99.90
5592;DHT22;2818;49.790;9.958;2022-11-10T02:44:42;9.70;99.90
5592;DHT22;2818;49.790;9.958;2022-11-10T02:47:09;9.70;99.90
5592;DHT22;2818;49.790;9.958;2022-11-10T02:49:36;9.70;99.90
5592;DHT22;2818;49.790;9.958;2022-11-10T02:52:03;9.70;99.90
5592;DHT22;2818;49.790;9.958;2022-11-10T02:54:30;9.60;99.90
5592;DHT22;2818;49.790;9.958;2022-11-10T02:56:57;9.60;99.90
5592;DHT22;2818;49.790;9.958;2022-11-10T02:59:23;9.50;99.90
5592;DHT22;2818;49.790;9.958;2022-11-10T03:01:50;9.50;99.90
5592;DHT22;2818;49.790;9.958;2022-11-10T03:04:17;9.40;99.90
5592;DHT22;2818;49.790;9.958;2022-11-10T03:06:44;9.40;99.90
5592;DHT22;2818;49.790;9.958;2022-11-10T03:09:11;9.40;99.90
5592;DHT22;2818;49.790;9.958;2022-11-10T03:11:38;9.40;99.90
5592;DHT22;2818;49.790;9.958;2022-11-10T03:14:05;9.40;99.90
5592;DHT22;2818;49.790;9.958;2022-11-10T03:16:32;9.40;99.90
5592;DHT22;2818;49.790;9.958;2022-11-10T03:18:59;9.30;99.90
5592;DHT22;2818;49.790;9.958;2022-11-10T03:21:25;9.30;99.90
5592;DHT22;2818;49.790;9.958;2022-11-10T03:23:52;9.30;99.90
5592;DHT22;2818;49.790;9.958;2022-11-10T03:26:19;9.30;99.90
5592;DHT22;2818;49.790;9.958;2022-11-10T03:28:47;9.30;99.90
5592;DHT22;2818;49.790;9.958;2022-11-10T03:31:14;9.30;99.90
5592;DHT22;2818;49.790;9.958;2022-11-10T03:33:41;9.30;99.90
5592;DHT22;2818;49.790;9.958;2022-11-10T03:36:08;9.30;99.90
5592;DHT22;2818;49.790;9.958;2022-11-10T03:38:34;9.30;99.90
5592;DHT22;2818;49.790;9.958;2022-11-10T03:41:01;9.30;99.90
5592;DHT22;2818;49.790;9.958;2022-11-10T03:43:46;9.30;99.90
5592;DHT22;2818;49.790;9.958;2022-11-10T03:46:14;9.20;99.90
5592;DHT22;2818;49.790;9.958;2022-11-10T03:48:41;9.20;99.90
5592;DHT22;2818;49.790;9.958;2022-11-10T03:51:08;9.20;99.90
5592;DHT22;2818;49.790;9.958;2022-11-10T03:53:35;9.20;99.90
5592;DHT22;2818;49.790;9.958;2022-11-10T03:56:03;9.10;99.90
5592;DHT22;2818;49.790;9.958;2022-11-10T03:58:30;9.10;99.90
5592;DHT22;2818;49.790;9.958;2022-11-10T04:00:57;9.10;99.90
5592;DHT22;2818;49.790;9.958;2022-11-10T04:03:24;9.00;99.90
5592;DHT22;2818;49.790;9.958;2022-11-10T04:05:51;9.00;99.90
5592;DHT22;2818;49.790;9.958;2022-11-10T04:08:37;9.00;99.90
5592;DHT22;2818;49.790;9.958;2022-11-10T04:11:22;9.00;99.90
5592;DHT22;2818;49.790;9.958;2022-11-10T04:14:08;9.00;99.90
5592;DHT22;2818;49.790;9.958;2022-11-10T04:16:54;8.90;99.90
5592;DHT22;2818;49.790;9.958;2022-11-10T04:19:21;8.90;99.90
5592;DHT22;2818;49.790;9.958;2022-11-10T04:21:48;8.90;99.90
5592;DHT22;2818;49.790;9.958;2022-11-10T04:24:15;8.90;99.90
5592;DHT22;2818;49.790;9.958;2022-11-10T04:26:43;8.90;99.90
5592;DHT22;2818;49.790;9.958;2022-11-10T04:29:11;8.80;99.90
5592;DHT22;2818;49.790;9.958;2022-11-10T04:31:39;8.80;99.90
5592;DHT22;2818;49.790;9.958;2022-11-10T04:34:08;8.80;99.90
5592;DHT22;2818;49.790;9.958;2022-11-10T04:36:37;8.80;99.90
5592;DHT22;2818;49.790;9.958;2022-11-10T04:39:05;8.80;99.90
5592;DHT22;2818;49.790;9.958;2022-11-10T04:41:33;8.80;99.90
5592;DHT22;2818;49.790;9.958;2022-11-10T04:44:00;8.80;99.90
5592;DHT22;2818;49.790;9.958;2022-11-10T04:46:36;8.80;99.90
5592;DHT22;2818;49.790;9.958;2022-11-10T04:49:04;8.80;99.90
5592;DHT22;2818;49.790;9.958;2022-11-10T04:51:34;8.70;99.90
5592;DHT22;2818;49.790;9.958;2022-11-10T04:54:01;8.70;99.90
5592;DHT22;2818;49.790;9.958;2022-11-10T04:56:28;8.70;99.90
5592;DHT22;2818;49.790;9.958;2022-11-10T04:58:56;8.70;99.90
5592;DHT22;2818;49.790;9.958;2022-11-10T05:01:25;8.70;99.90
5592;DHT22;2818;49.790;9.958;2022-11-10T05:03:53;8.70;99.90
5592;DHT22;2818;49.790;9.958;2022-11-10T05:06:21;8.70;99.90
5592;DHT22;2818;49.790;9.958;2022-11-10T05:08:47;8.70;99.90
5592;DHT22;2818;49.790;9.958;2022-11-10T05:11:15;8.60;99.90
5592;DHT22;2818;49.790;9.958;2022-11-10T05:13:42;8.70;99.90
5592;DHT22;2818;49.790;9.958;2022-11-10T05:16:10;8.70;99.90
5592;DHT22;2818;49.790;9.958;2022-11-10T05:18:37;8.70;99.90
5592;DHT22;2818;49.790;9.958;2022-11-10T05:21:04;8.70;99.90
5592;DHT22;2818;49.790;9.958;2022-11-10T05:23:31;8.70;99.90
5592;DHT22;2818;49.790;9.958;2022-11-10T05:26:12;8.70;99.90
5592;DHT22;2818;49.790;9.958;2022-11-10T05:28:41;8.70;99.90
5592;DHT22;2818;49.790;9.958;2022-11-10T05:31:09;8.70;99.90
5592;DHT22;2818;49.790;9.958;2022-11-10T05:33:37;8.70;99.90
5592;DHT22;2818;49.790;9.958;2022-11-10T05:36:05;8.80;99.90
5592;DHT22;2818;49.790;9.958;2022-11-10T05:38:32;8.80;99.90
5592;DHT22;2818;49.790;9.958;2022-11-10T05:41:04;8.80;99.90
5592;DHT22;2818;49.790;9.958;2022-11-10T05:43:31;8.80;99.90
5592;DHT22;2818;49.790;9.958;2022-11-10T05:45:58;8.80;99.90
5592;DHT22;2818;49.790;9.958;2022-11-10T05:48:25;8.80;99.90
5592;DHT22;2818;49.790;9.958;2022-11-10T05:50:52;8.70;99.90
5592;DHT22;2818;49.790;9.958;2022-11-10T05:53:18;8.80;99.90
5592;DHT22;2818;49.790;9.958;2022-11-10T05:55:46;8.70;99.90
5592;DHT22;2818;49.790;9.958;2022-11-10T05:58:13;8.70;99.90
5592;DHT22;2818;49.790;9.958;2022-11-10T06:00:40;8.70;99.90
5592;DHT22;2818;49.790;9.958;2022-11-10T06:03:17;8.70;99.90
5592;DHT22;2818;49.790;9.958;2022-11-10T06:05:45;8.70;99.90
5592;DHT22;2818;49.790;9.958;2022-11-10T06:08:12;8.60;99.90
5592;DHT22;2818;49.790;9.958;2022-11-10T06:10:39;8.60;99.90
5592;DHT22;2818;49.790;9.958;2022-11-10T06:13:06;8.60;99.90
5592;DHT22;2818;49.790;9.958;2022-11-10T06:15:33;8.60;99.90
5592;DHT22;2818;49.790;9.958;2022-11-10T06:18:00;8.60;99.90
5592;DHT22;2818;49.790;9.958;2022-11-10T06:20:27;8.50;99.90
5592;DHT22;2818;49.790;9.958;2022-11-10T06:25:26;8.50;99.90
5592;DHT22;2818;49.790;9.958;2022-11-10T06:27:54;8.50;99.90
5592;DHT22;2818;49.790;9.958;2022-11-10T06:30:21;8.50;99.90
5592;DHT22;2818;49.790;9.958;2022-11-10T06:32:48;8.50;99.90
5592;DHT22;2818;49.790;9.958;2022-11-10T06:35:16;8.40;99.90
5592;DHT22;2818;49.790;9.958;2022-11-10T06:37:43;8.50;99.90
5592;DHT22;2818;49.790;9.958;2022-11-10T06:40:11;8.50;99.90
5592;DHT22;2818;49.790;9.958;2022-11-10T06:42:39;8.50;99.90
5592;DHT22;2818;49.790;9.958;2022-11-10T06:45:06;8.50;99.90
5592;DHT22;2818;49.790;9.958;2022-11-10T06:47:33;8.60;99.90
5592;DHT22;2818;49.790;9.958;2022-11-10T06:50:00;8.60;99.90
5592;DHT22;2818;49.790;9.958;2022-11-10T06:52:27;8.60;99.90
5592;DHT22;2818;49.790;9.958;2022-11-10T06:54:54;8.60;99.90
5592;DHT22;2818;49.790;9.958;2022-11-10T06:57:21;8.70;99.90
5592;DHT22;2818;49.790;9.958;2022-11-10T06:59:48;8.70;99.90
5592;DHT22;2818;49.790;9.958;2022-11-10T07:02:24;8.70;99.90
5592;DHT22;2818;49.790;9.958;2022-11-10T07:04:51;8.80;99.90
5592;DHT22;2818;49.790;9.958;2022-11-10T07:07:18;8.80;99.90
5592;DHT22;2818;49.790;9.958;2022-11-10T07:09:45;8.90;99.90
5592;DHT22;2818;49.790;9.958;2022-11-10T07:12:11;8.90;99.90
5592;DHT22;2818;49.790;9.958;2022-11-10T07:14:38;9.00;99.90
5592;DHT22;2818;49.790;9.958;2022-11-10T07:17:05;9.00;99.90
5592;DHT22;2818;49.790;9.958;2022-11-10T07:19:32;9.10;99.90
5592;DHT22;2818;49.790;9.958;2022-11-10T07:21:59;9.10;99.90
5592;DHT22;2818;49.790;9.958;2022-11-10T07:24:26;9.20;99.90
5592;DHT22;2818;49.790;9.958;2022-11-10T07:26:59;9.30;99.90
5592;DHT22;2818;49.790;9.958;2022-11-10T07:29:26;9.30;99.90
5592;DHT22;2818;49.790;9.958;2022-11-10T07:31:52;9.30;99.90
5592;DHT22;2818;49.790;9.958;2022-11-10T07:34:19;9.40;99.90
5592;DHT22;2818;49.790;9.958;2022-11-10T07:36:46;9.40;99.90
5592;DHT22;2818;49.790;9.958;2022-11-10T07:39:13;9.50;99.90
5592;DHT22;2818;49.790;9.958;2022-11-10T07:41:40;9.50;99.90
5592;DHT22;2818;49.790;9.958;2022-11-10T07:44:07;9.50;99.90
5592;DHT22;2818;49.790;9.958;2022-11-10T07:46:34;9.50;99.90
5592;DHT22;2818;49.790;9.958;2022-11-10T07:49:01;9.50;99.90
5592;DHT22;2818;49.790;9.958;2022-11-10T07:51:28;9.50;99.90
5592;DHT22;2818;49.790;9.958;2022-11-10T07:53:56;9.50;99.90
5592;DHT22;2818;49.790;9.958;2022-11-10T07:56:23;9.50;99.90
5592;DHT22;2818;49.790;9.958;2022-11-10T07:58:50;9.60;99.90
5592;DHT22;2818;49.790;9.958;2022-11-10T08:01:17;9.60;99.90
5592;DHT22;2818;49.790;9.958;2022-11-10T08:03:43;9.60;99.90
5592;DHT22;2818;49.790;9.958;2022-11-10T08:06:10;9.60;99.90
5592;DHT22;2818;49.790;9.958;2022-11-10T08:08:37;9.60;99.90
5592;DHT22;2818;49.790;9.958;2022-11-10T08:11:04;9.60;99.90
5592;DHT22;2818;49.790;9.958;2022-11-10T08:13:31;9.80;99.90
5592;DHT22;2818;49.790;9.958;2022-11-10T08:15:58;10.00;99.90
5592;DHT22;2818;49.790;9.958;2022-11-10T08:18:25;10.40;99.90
5592;DHT22;2818;49.790;9.958;2022-11-10T08:21:01;10.90;99.90
5592;DHT22;2818;49.790;9.958;2022-11-10T08:23:28;11.60;99.90
5592;DHT22;2818;49.790;9.958;2022-11-10T08:25:59;12.80;1.00
5592;DHT22;2818;49.790;9.958;2022-11-10T08:28:26;14.50;99.90
5592;DHT22;2818;49.790;9.958;2022-11-10T08:30:54;15.80;99.90
5592;DHT22;2818;49.790;9.958;2022-11-10T08:33:21;17.30;1.00
5592;DHT22;2818;49.790;9.958;2022-11-10T08:35:50;18.60;1.00
5592;DHT22;2818;49.790;9.958;2022-11-10T08:38:19;19.10;1.00
5592;DHT22;2818;49.790;9.958;2022-11-10T08:40:46;20.10;99.90
5592;DHT22;2818;49.790;9.958;2022-11-10T08:43:14;20.90;99.90
5592;DHT22;2818;49.790;9.958;2022-11-10T08:45:43;21.00;99.90
5592;DHT22;2818;49.790;9.958;2022-11-10T08:48:17;21.70;99.90
5592;DHT22;2818;49.790;9.958;2022-11-10T08:50:45;22.40;99.90
5592;DHT22;2818;49.790;9.958;2022-11-10T08:53:18;22.80;99.90
5592;DHT22;2818;49.790;9.958;2022-11-10T08:55:46;22.90;99.90
5592;DHT22;2818;49.790;9.958;2022-11-10T08:58:15;23.70;99.90
5592;DHT22;2818;49.790;9.958;2022-11-10T09:00:43;23.70;99.90
5592;DHT22;2818;49.790;9.958;2022-11-10T09:03:15;23.40;99.90
5592;DHT22;2818;49.790;9.958;2022-11-10T09:05:42;22.80;99.90
5592;DHT22;2818;49.790;9.958;2022-11-10T09:08:10;21.30;99.90
5592;DHT22;2818;49.790;9.958;2022-11-10T09:10:40;20.30;99.90
5592;DHT22;2818;49.790;9.958;2022-11-10T09:13:08;19.70;99.90
5592;DHT22;2818;49.790;9.958;2022-11-10T09:15:36;19.70;99.90
5592;DHT22;2818;49.790;9.958;2022-11-10T09:18:04;19.90;99.90
5592;DHT22;2818;49.790;9.958;2022-11-10T09:20:34;20.20;99.90
5592;DHT22;2818;49.790;9.958;2022-11-10T09:23:15;20.00;99.90
5592;DHT22;2818;49.790;9.958;2022-11-10T09:25:48;20.20;99.90
5592;DHT22;2818;49.790;9.958;2022-11-10T09:28:15;19.80;99.90
5592;DHT22;2818;49.790;9.958;2022-11-10T09:30:45;19.40;99.90
5592;DHT22;2818;49.790;9.958;2022-11-10T09:33:12;19.70;99.90
5592;DHT22;2818;49.790;9.958;2022-11-10T09:35:39;19.50;99.90
5592;DHT22;2818;49.790;9.958;2022-11-10T09:38:06;19.90;99.90
5592;DHT22;2818;49.790;9.958;2022-11-10T09:46:22;19.90;99.90
5592;DHT22;2818;49.790;9.958;2022-11-10T09:48:53;19.70;99.90
5592;DHT22;2818;49.790;9.958;2022-11-10T09:51:24;19.10;99.90
5592;DHT22;2818;49.790;9.958;2022-11-10T09:53:56;18.70;99.90
5592;DHT22;2818;49.790;9.958;2022-11-10T09:56:32;18.50;99.90
5592;DHT22;2818;49.790;9.958;2022-11-10T09:58:59;17.80;99.90
5592;DHT22;2818;49.790;9.958;2022-11-10T10:07:45;15.70;99.90
5592;DHT22;2818;49.790;9.958;2022-11-10T10:10:21;15.00;1.00
5592;DHT22;2818;49.790;9.958;2022-11-10T10:15:35;14.20;99.90
5592;DHT22;2818;49.790;9.958;2022-11-10T10:23:54;13.60;1.00
5592;DHT22;2818;49.790;9.958;2022-11-10T10:26:51;13.50;99.90
5592;DHT22;2818;49.790;9.958;2022-11-10T10:29:22;13.60;1.00
5592;DHT22;2818;49.790;9.958;2022-11-10T10:31:51;14.00;1.00
5592;DHT22;2818;49.790;9.958;2022-11-10T10:34:27;14.30;99.90
5592;DHT22;2818;49.790;9.958;2022-11-10T10:36:54;14.50;1.00
5592;DHT22;2818;49.790;9.958;2022-11-10T10:39:35;14.90;1.00
5592;DHT22;2818;49.790;9.958;2022-11-10T10:42:08;15.60;1.00
5592;DHT22;2818;49.790;9.958;2022-11-10T10:47:44;15.40;99.90
5592;DHT22;2818;49.790;9.958;2022-11-10T10:50:20;15.30;1.00
5592;DHT22;2818;49.790;9.958;2022-11-10T10:55:48;15.90;99.90
5592;DHT22;2818;49.790;9.958;2022-11-10T10:58:31;16.10;99.90
5592;DHT22;2818;49.790;9.958;2022-11-10T11:03:46;15.40;99.90
5592;DHT22;2818;49.790;9.958;2022-11-10T11:09:14;15.70;99.90
5592;DHT22;2818;49.790;9.958;2022-11-10T11:11:44;15.70;99.90
5592;DHT22;2818;49.790;9.958;2022-11-10T11:14:21;15.80;99.90
5592;DHT22;2818;49.790;9.958;2022-11-10T11:19:22;16.00;99.90
5592;DHT22;2818;49.790;9.958;2022-11-10T11:30:12;17.90;1.00
5592;DHT22;2818;49.790;9.958;2022-11-10T11:49:06;18.10;1.00
5592;DHT22;2818;49.790;9.958;2022-11-10T11:51:48;18.40;1.00
5592;DHT22;2818;49.790;9.958;2022-11-10T11:57:30;18.20;99.90
5592;DHT22;2818;49.790;9.958;2022-11-10T12:00:16;18.50;99.90
5592;DHT22;2818;49.790;9.958;2022-11-10T12:02:54;18.50;99.90
5592;DHT22;2818;49.790;9.958;2022-11-10T12:05:39;18.60;99.90
5592;DHT22;2818;49.790;9.958;2022-11-10T12:11:19;18.50;99.90
5592;DHT22;2818;49.790;9.958;2022-11-10T12:16:44;18.50;99.90
5592;DHT22;2818;49.790;9.958;2022-11-10T12:19:32;18.70;99.90
5592;DHT22;2818;49.790;9.958;2022-11-10T12:27:20;17.80;99.90
5592;DHT22;2818;49.790;9.958;2022-11-10T12:29:54;17.80;99.90
5592;DHT22;2818;49.790;9.958;2022-11-10T12:34:59;17.40;1.00
5592;DHT22;2818;49.790;9.958;2022-11-10T12:37:53;17.20;1.00
5592;DHT22;2818;49.790;9.958;2022-11-10T12:40:39;17.00;1.00
5592;DHT22;2818;49.790;9.958;2022-11-10T12:45:53;17.10;1.00
5592;DHT22;2818;49.790;9.958;2022-11-10T12:48:23;17.40;1.00
5592;DHT22;2818;49.790;9.958;2022-11-10T12:53:29;17.60;1.00
5592;DHT22;2818;49.790;9.958;2022-11-10T12:56:01;17.70;1.00
5592;DHT22;2818;49.790;9.958;2022-11-10T12:58:29;17.40;1.00
5592;DHT22;2818;49.790;9.958;2022-11-10T13:01:05;17.00;1.00
5592;DHT22;2818;49.790;9.958;2022-11-10T13:03:35;16.90;1.00
5592;DHT22;2818;49.790;9.958;2022-11-10T13:06:26;16.60;1.00
5592;DHT22;2818;49.790;9.958;2022-11-10T13:08:51;16.30;99.90
5592;DHT22;2818;49.790;9.958;2022-11-10T13:11:35;16.00;99.90
5592;DHT22;2818;49.790;9.958;2022-11-10T13:14:03;15.80;1.00
5592;DHT22;2818;49.790;9.958;2022-11-10T13:16:46;15.70;1.00
5592;DHT22;2818;49.790;9.958;2022-11-10T13:24:31;15.30;1.00
5592;DHT22;2818;49.790;9.958;2022-11-10T13:27:11;15.10;24.40
5592;DHT22;2818;49.790;9.958;2022-11-10T13:34:43;14.80;1.00
5592;DHT22;2818;49.790;9.958;2022-11-10T13:45:41;14.40;3.70
5592;DHT22;2818;49.790;9.958;2022-11-10T13:53:34;14.30;99.90
5592;DHT22;2818;49.790;9.958;2022-11-10T13:59:30;14.30;99.90
5592;DHT22;2818;49.790;9.958;2022-11-10T14:05:00;14.30;1.00
5592;DHT22;2818;49.790;9.958;2022-11-10T14:07:36;14.30;1.00
5592;DHT22;2818;49.790;9.958;2022-11-10T14:10:10;14.40;1.00
5592;DHT22;2818;49.790;9.958;2022-11-10T14:12:44;14.50;99.90
5592;DHT22;2818;49.790;9.958;2022-11-10T14:15:39;14.50;1.00
5592;DHT22;2818;49.790;9.958;2022-11-10T14:18:22;14.40;35.90
5592;DHT22;2818;49.790;9.958;2022-11-10T14:20:56;14.50;62.00
5592;DHT22;2818;49.790;9.958;2022-11-10T14:23:43;14.40;99.90
5592;DHT22;2818;49.790;9.958;2022-11-10T14:26:34;14.40;99.90
5592;DHT22;2818;49.790;9.958;2022-11-10T14:29:26;14.50;99.90
5592;DHT22;2818;49.790;9.958;2022-11-10T14:31:55;14.60;1.00
5592;DHT22;2818;49.790;9.958;2022-11-10T14:34:24;14.60;99.90
5592;DHT22;2818;49.790;9.958;2022-11-10T14:36:53;14.70;70.30
5592;DHT22;2818;49.790;9.958;2022-11-10T14:39:31;14.70;1.00
5592;DHT22;2818;49.790;9.958;2022-11-10T14:42:01;14.70;1.00
5592;DHT22;2818;49.790;9.958;2022-11-10T14:44:30;14.70;1.00
5592;DHT22;2818;49.790;9.958;2022-11-10T14:47:22;14.70;1.00
5592;DHT22;2818;49.790;9.958;2022-11-10T14:52:43;14.60;1.00
5592;DHT22;2818;49.790;9.958;2022-11-10T14:55:35;14.60;99.90
5592;DHT22;2818;49.790;9.958;2022-11-10T15:00:34;14.40;99.90
5592;DHT22;2818;49.790;9.958;2022-11-10T15:03:02;14.40;99.90
5592;DHT22;2818;49.790;9.958;2022-11-10T15:05:30;14.30;1.00
5592;DHT22;2818;49.790;9.958;2022-11-10T15:07:59;14.20;99.90
5592;DHT22;2818;49.790;9.958;2022-11-10T15:10:47;14.20;1.00
5592;DHT22;2818;49.790;9.958;2022-11-10T15:13:36;14.10;1.00
5592;DHT22;2818;49.790;9.958;2022-11-10T15:16:28;14.00;99.90
5592;DHT22;2818;49.790;9.958;2022-11-10T15:19:34;13.90;1.00
5592;DHT22;2818;49.790;9.958;2022-11-10T15:24:44;13.80;1.00
5592;DHT22;2818;49.790;9.958;2022-11-10T15:27:22;13.70;1.00
5592;DHT22;2818;49.790;9.958;2022-11-10T15:29:50;13.60;1.00
5592;DHT22;2818;49.790;9.958;2022-11-10T15:32:19;13.50;1.00
5592;DHT22;2818;49.790;9.958;2022-11-10T15:34:48;13.40;1.00
5592;DHT22;2818;49.790;9.958;2022-11-10T15:43:10;13.10;1.00
5592;DHT22;2818;49.790;9.958;2022-11-10T15:45:39;13.10;99.90
5592;DHT22;2818;49.790;9.958;2022-11-10T15:48:14;13.00;1.00
5592;DHT22;2818;49.790;9.958;2022-11-10T15:50:44;12.90;1.00
5592;DHT22;2818;49.790;9.958;2022-11-10T15:53:16;12.90;17.70
5592;DHT22;2818;49.790;9.958;2022-11-10T15:55:44;12.80;99.90
5592;DHT22;2818;49.790;9.958;2022-11-10T15:58:19;12.70;99.90
5592;DHT22;2818;49.790;9.958;2022-11-10T16:00:48;12.70;99.90
5592;DHT22;2818;49.790;9.958;2022-11-10T16:03:19;12.70;99.90
5592;DHT22;2818;49.790;9.958;2022-11-10T16:05:47;12.70;99.90
5592;DHT22;2818;49.790;9.958;2022-11-10T16:08:19;12.60;1.00
5592;DHT22;2818;49.790;9.958;2022-11-10T16:10:55;12.50;1.00
5592;DHT22;2818;49.790;9.958;2022-11-10T16:13:26;12.40;1.00
5592;DHT22;2818;49.790;9.958;2022-11-10T16:15:54;12.30;1.00
5592;DHT22;2818;49.790;9.958;2022-11-10T16:18:23;12.20;1.00
5592;DHT22;2818;49.790;9.958;2022-11-10T16:20:51;12.10;1.00
5592;DHT22;2818;49.790;9.958;2022-11-10T16:23:18;12.10;1.00
5592;DHT22;2818;49.790;9.958;2022-11-10T16:25:48;12.00;1.00
5592;DHT22;2818;49.790;9.958;2022-11-10T16:28:21;11.90;1.00
5592;DHT22;2818;49.790;9.958;2022-11-10T16:30:50;11.90;1.00
5592;DHT22;2818;49.790;9.958;2022-11-10T16:33:19;11.80;1.00
5592;DHT22;2818;49.790;9.958;2022-11-10T16:35:49;11.80;1.00
5592;DHT22;2818;49.790;9.958;2022-11-10T16:40:51;11.70;1.00
5592;DHT22;2818;49.790;9.958;2022-11-10T16:43:19;11.70;1.00
5592;DHT22;2818;49.790;9.958;2022-11-10T16:45:47;11.60;1.00
5592;DHT22;2818;49.790;9.958;2022-11-10T16:48:17;11.60;1.00
5592;DHT22;2818;49.790;9.958;2022-11-10T16:50:50;11.50;1.00
5592;DHT22;2818;49.790;9.958;2022-11-10T16:53:23;11.50;1.00
5592;DHT22;2818;49.790;9.958;2022-11-10T16:55:50;11.50;1.00
5592;DHT22;2818;49.790;9.958;2022-11-10T16:58:17;11.40;1.00
5592;DHT22;2818;49.790;9.958;2022-11-10T17:00:46;11.40;1.00
5592;DHT22;2818;49.790;9.958;2022-11-10T17:03:20;11.40;1.00
5592;DHT22;2818;49.790;9.958;2022-11-10T17:05:52;11.40;1.00
5592;DHT22;2818;49.790;9.958;2022-11-10T17:08:29;11.40;1.00
5592;DHT22;2818;49.790;9.958;2022-11-10T17:10:56;11.40;1.00
5592;DHT22;2818;49.790;9.958;2022-11-10T17:13:23;11.30;1.00
5592;DHT22;2818;49.790;9.958;2022-11-10T17:16:18;11.30;1.00
5592;DHT22;2818;49.790;9.958;2022-11-10T17:18:46;11.30;1.00
5592;DHT22;2818;49.790;9.958;2022-11-10T17:21:13;11.30;1.00
5592;DHT22;2818;49.790;9.958;2022-11-10T17:23:40;11.20;1.00
5592;DHT22;2818;49.790;9.958;2022-11-10T17:26:09;11.20;1.00
5592;DHT22;2818;49.790;9.958;2022-11-10T17:28:37;11.20;1.00
5592;DHT22;2818;49.790;9.958;2022-11-10T17:31:04;11.20;1.00
5592;DHT22;2818;49.790;9.958;2022-11-10T17:33:31;11.20;1.00
5592;DHT22;2818;49.790;9.958;2022-11-10T17:36:00;11.10;1.00
5592;DHT22;2818;49.790;9.958;2022-11-10T17:38:29;11.10;1.00
5592;DHT22;2818;49.790;9.958;2022-11-10T17:40:56;11.10;1.00
5592;DHT22;2818;49.790;9.958;2022-11-10T17:43:24;11.10;1.00
5592;DHT22;2818;49.790;9.958;2022-11-10T17:45:51;11.10;1.00
5592;DHT22;2818;49.790;9.958;2022-11-10T17:48:18;11.10;1.00
5592;DHT22;2818;49.790;9.958;2022-11-10T17:50:45;11.10;1.00
5592;DHT22;2818;49.790;9.958;2022-11-10T17:53:23;11.00;1.00
5592;DHT22;2818;49.790;9.958;2022-11-10T17:55:51;10.90;1.00
5592;DHT22;2818;49.790;9.958;2022-11-10T17:58:18;10.90;1.00
5592;DHT22;2818;49.790;9.958;2022-11-10T18:00:46;10.80;5.20
5592;DHT22;2818;49.790;9.958;2022-11-10T18:03:18;10.80;14.10
5592;DHT22;2818;49.790;9.958;2022-11-10T18:05:46;10.70;15.00
5592;DHT22;2818;49.790;9.958;2022-11-10T18:08:14;10.70;14.80
5592;DHT22;2818;49.790;9.958;2022-11-10T18:10:43;10.70;21.10
5592;DHT22;2818;49.790;9.958;2022-11-10T18:13:11;10.70;18.80
5592;DHT22;2818;49.790;9.958;2022-11-10T18:15:42;10.60;16.60
5592;DHT22;2818;49.790;9.958;2022-11-10T18:18:14;10.60;28.30
5592;DHT22;2818;49.790;9.958;2022-11-10T18:20:43;10.60;32.10
5592;DHT22;2818;49.790;9.958;2022-11-10T18:23:11;10.60;45.70
5592;DHT22;2818;49.790;9.958;2022-11-10T18:25:39;10.60;40.90
5592;DHT22;2818;49.790;9.958;2022-11-10T18:28:06;10.60;41.60
5592;DHT22;2818;49.790;9.958;2022-11-10T18:30:33;10.60;40.40
5592;DHT22;2818;49.790;9.958;2022-11-10T18:33:02;10.60;31.70
5592;DHT22;2818;49.790;9.958;2022-11-10T18:35:29;10.60;26.00
5592;DHT22;2818;49.790;9.958;2022-11-10T18:37:59;10.60;22.40
5592;DHT22;2818;49.790;9.958;2022-11-10T18:40:26;10.60;20.90
5592;DHT22;2818;49.790;9.958;2022-11-10T18:42:57;10.60;18.60
5592;DHT22;2818;49.790;9.958;2022-11-10T18:45:31;10.60;12.60